createdAt,value
2022-09-11T00:00:31.147Z,97383.72
2022-09-11T00:03:34.477Z,97386.53
2022-09-11T00:06:38.696Z,97380.44
2022-09-11T00:09:41.422Z,97366.78
2022-09-11T00:12:44.736Z,97365.16
2022-09-11T00:15:48.537Z,97361.88
2022-09-11T00:18:52.258Z,97353.09
2022-09-11T00:21:57.313Z,97347.81
2022-09-11T00:25:00.282Z,97343.34
2022-09-11T00:28:03.841Z,97347.81
2022-09-11T00:31:08.701Z,97343.34
2022-09-11T00:34:11.513Z,97353.53
2022-09-11T00:37:16.333Z,97363.53
2022-09-11T00:40:20.379Z,97382.06
2022-09-11T00:43:23.570Z,97391.88
2022-09-11T00:46:34.459Z,97404.50
2022-09-11T00:49:42.735Z,97428.53
2022-09-11T00:52:53.718Z,97432.63
2022-09-11T00:55:59.878Z,97446.91
2022-09-11T00:59:03.820Z,97461.78
2022-09-11T01:02:08.115Z,97470.75
2022-09-11T01:05:13.391Z,97461.16
2022-09-11T01:08:17.719Z,97462.97
2022-09-11T01:11:29.730Z,97470.09
2022-09-11T01:14:40.981Z,97480.91
2022-09-11T01:17:54.078Z,97493.16
2022-09-11T01:21:34.464Z,97498.25
2022-09-11T01:25:07.187Z,97499.66
2022-09-11T01:28:15.061Z,97503.94
2022-09-11T01:31:23.325Z,97503.50
2022-09-11T01:34:35.478Z,97514.53
2022-09-11T01:37:43.702Z,97514.34
2022-09-11T01:40:53.587Z,97514.09
2022-09-11T01:44:03.780Z,97512.72
2022-09-11T01:47:11.269Z,97510.06
2022-09-11T01:50:18.520Z,97509.59
2022-09-11T01:53:26.782Z,97509.38
2022-09-11T01:56:34.006Z,97510.81
2022-09-11T01:59:42.321Z,97507.31
2022-09-11T02:02:48.626Z,97503.81
2022-09-11T02:05:56.419Z,97501.63
2022-09-11T02:09:03.331Z,97485.31
2022-09-11T02:12:11.169Z,97479.63
2022-09-11T02:15:17.096Z,97464.63
2022-09-11T02:18:26.922Z,97463.50
2022-09-11T02:21:31.024Z,97444.75
2022-09-11T02:24:33.788Z,97432.03
2022-09-11T02:27:37.037Z,97442.66
2022-09-11T02:30:41.539Z,97428.31
2022-09-11T02:33:44.284Z,97439.84
2022-09-11T02:37:02.384Z,97459.16
2022-09-11T02:40:21.345Z,97453.81
2022-09-11T02:43:55.889Z,97455.97
2022-09-11T02:47:12.047Z,97455.78
2022-09-11T02:50:25.225Z,97447.34
2022-09-11T02:53:35.963Z,97446.19
2022-09-11T02:56:44.830Z,97454.56
2022-09-11T02:59:54.142Z,97448.84
2022-09-11T03:02:59.134Z,97482.94
2022-09-11T03:06:02.337Z,97508.66
2022-09-11T03:09:05.227Z,97526.25
2022-09-11T03:12:08.191Z,97563.16
2022-09-11T03:15:12.940Z,97577.09
2022-09-11T03:18:19.706Z,97581.50
2022-09-11T03:21:22.493Z,97593.16
2022-09-11T03:24:26.440Z,97613.13
2022-09-11T03:27:29.224Z,97625.81
2022-09-11T03:30:33.359Z,97640.41
2022-09-11T03:33:37.688Z,97655.22
2022-09-11T03:36:40.949Z,97677.50
2022-09-11T03:39:44.194Z,97697.56
2022-09-11T03:42:47.133Z,97710.16
2022-09-11T03:45:50.684Z,97731.31
2022-09-11T03:48:55.264Z,97746.34
2022-09-11T03:51:58.045Z,97758.84
2022-09-11T03:55:01.267Z,97784.97
2022-09-11T03:58:04.205Z,97796.06
2022-09-11T04:01:11.425Z,97812.03
2022-09-11T04:04:16.277Z,97816.75
2022-09-11T04:07:19.531Z,97821.94
2022-09-11T04:10:22.752Z,97826.72
2022-09-11T04:13:29.301Z,97828.84
2022-09-11T04:16:33.529Z,97838.13
2022-09-11T04:19:38.213Z,97856.50
2022-09-11T04:22:41.081Z,97863.59
2022-09-11T04:25:44.120Z,97864.50
2022-09-11T04:28:47.486Z,97870.06
2022-09-11T04:31:51.295Z,97875.97
2022-09-11T04:34:56.345Z,97888.13
2022-09-11T04:37:59.233Z,97895.59
2022-09-11T04:41:03.035Z,97901.84
2022-09-11T04:44:05.920Z,97914.69
2022-09-11T04:47:16.129Z,97902.75
2022-09-11T04:50:21.205Z,97908.78
2022-09-11T04:53:43.489Z,97906.28
2022-09-11T04:56:46.313Z,97909.78
2022-09-11T04:59:50.797Z,97922.13
2022-09-11T05:02:54.821Z,97932.50
2022-09-11T05:05:59.387Z,97935.06
2022-09-11T05:09:03.661Z,97939.81
2022-09-11T05:12:08.481Z,97943.81
2022-09-11T05:15:13.088Z,97958.34
2022-09-11T05:18:15.906Z,97960.16
2022-09-11T05:21:22.470Z,97972.69
2022-09-11T05:24:25.430Z,97988.34
2022-09-11T05:27:28.640Z,97999.78
2022-09-11T05:30:32.319Z,98010.53
2022-09-11T05:33:35.915Z,98017.22
2022-09-11T05:36:41.563Z,98036.75
2022-09-11T05:39:44.861Z,98049.97
2022-09-11T05:42:49.953Z,98055.72
2022-09-11T05:45:56.287Z,98075.81
2022-09-11T05:49:00.136Z,98094.97
2022-09-11T05:52:05.326Z,98110.38
2022-09-11T05:55:10.499Z,98125.56
2022-09-11T05:58:13.293Z,98147.53
2022-09-11T06:01:18.387Z,98147.91
2022-09-11T06:04:25.089Z,98160.59
2022-09-11T06:07:30.996Z,98168.88
2022-09-11T06:10:34.131Z,98174.84
2022-09-11T06:13:38.962Z,98193.63
2022-09-11T06:16:43.231Z,98205.97
2022-09-11T06:19:50.000Z,98214.56
2022-09-11T06:22:55.435Z,98219.13
2022-09-11T06:26:04.596Z,98233.84
2022-09-11T06:29:14.765Z,98239.50
2022-09-11T06:32:19.953Z,98239.50
2022-09-11T06:35:23.320Z,98245.59
2022-09-11T06:38:27.887Z,98244.25
2022-09-11T06:41:31.950Z,98237.66
2022-09-11T06:44:42.657Z,98250.91
2022-09-11T06:47:47.848Z,98239.94
2022-09-11T06:50:50.562Z,98237.94
2022-09-11T06:53:57.729Z,98235.75
2022-09-11T06:57:03.293Z,98240.22
2022-09-11T07:00:07.804Z,98247.72
2022-09-11T07:03:15.369Z,98241.94
2022-09-11T07:06:20.304Z,98242.78
2022-09-11T07:09:24.824Z,98242.59
2022-09-11T07:12:32.074Z,98246.53
2022-09-11T07:15:34.833Z,98244.53
2022-09-11T07:18:39.745Z,98238.59
2022-09-11T07:21:46.383Z,98242.88
2022-09-11T07:24:54.724Z,98244.25
2022-09-11T07:27:57.560Z,98246.91
2022-09-11T07:31:05.869Z,98248.72
2022-09-11T07:34:11.649Z,98252.00
2022-09-11T07:37:19.458Z,98266.06
2022-09-11T07:40:24.201Z,98274.03
2022-09-11T07:43:27.421Z,98280.66
2022-09-11T07:46:31.361Z,98284.53
2022-09-11T07:49:37.761Z,98293.25
2022-09-11T07:52:42.303Z,98298.56
2022-09-11T07:55:46.548Z,98298.03
2022-09-11T07:58:50.637Z,98306.22
2022-09-11T08:01:55.696Z,98308.88
2022-09-11T08:04:59.051Z,98315.88
2022-09-11T08:08:03.252Z,98313.88
2022-09-11T08:11:10.789Z,98320.91
2022-09-11T08:14:15.091Z,98319.09
2022-09-11T08:17:18.657Z,98322.75
2022-09-11T08:20:22.771Z,98329.41
2022-09-11T08:23:25.797Z,98344.59
2022-09-11T08:26:31.122Z,98351.16
2022-09-11T08:29:35.114Z,98351.84
2022-09-11T08:32:40.120Z,98343.16
2022-09-11T08:35:45.404Z,98333.56
2022-09-11T08:38:48.672Z,98333.94
2022-09-11T08:42:00.155Z,98328.34
2022-09-11T08:45:06.737Z,98331.66
2022-09-11T08:48:16.958Z,98336.59
2022-09-11T08:51:20.302Z,98346.00
2022-09-11T08:54:28.989Z,98346.00
2022-09-11T08:57:44.805Z,98344.63
2022-09-11T09:01:00.379Z,98344.19
2022-09-11T09:04:21.266Z,98369.56
2022-09-11T09:07:36.531Z,98380.09
2022-09-11T09:10:53.163Z,98383.63
2022-09-11T09:14:24.723Z,98393.63
2022-09-11T09:17:33.098Z,98401.97
2022-09-11T09:20:39.646Z,98411.75
2022-09-11T09:23:47.005Z,98429.50
2022-09-11T09:26:53.197Z,98448.72
2022-09-11T09:30:00.672Z,98446.53
2022-09-11T09:33:16.920Z,98425.94
2022-09-11T09:36:22.500Z,98391.00
2022-09-11T09:39:26.671Z,98367.69
2022-09-11T09:42:42.675Z,98347.28
2022-09-11T09:46:04.598Z,98328.53
2022-09-11T09:49:09.298Z,98320.50
2022-09-11T09:52:18.320Z,98317.22
2022-09-11T09:55:22.231Z,98290.47
2022-09-11T09:58:30.095Z,98263.53
2022-09-11T10:01:50.093Z,98250.00
2022-09-11T10:05:19.113Z,98236.97
2022-09-11T10:08:29.422Z,98234.47
2022-09-11T10:11:32.679Z,98225.88
2022-09-11T10:14:51.509Z,98225.66
2022-09-11T10:17:58.684Z,98213.94
2022-09-11T10:21:16.005Z,98211.41
2022-09-11T10:24:24.412Z,98203.34
2022-09-11T10:27:29.017Z,98189.06
2022-09-11T10:30:35.716Z,98166.56
2022-09-11T10:33:41.054Z,98192.84
2022-09-11T10:36:53.846Z,98182.56
2022-09-11T10:40:05.522Z,98176.88
2022-09-11T10:43:24.558Z,98163.09
2022-09-11T10:46:30.408Z,98115.25
2022-09-11T10:49:34.287Z,98094.19
2022-09-11T10:52:49.615Z,98048.09
2022-09-11T10:56:00.471Z,97960.63
2022-09-11T10:59:13.365Z,97911.44
2022-09-11T11:02:21.374Z,97879.34
2022-09-11T11:05:31.393Z,97824.75
2022-09-11T11:09:01.201Z,97808.63
2022-09-11T11:12:23.197Z,97817.22
2022-09-11T11:15:35.515Z,97807.41
2022-09-11T11:19:06.739Z,97806.16
2022-09-11T11:22:21.848Z,97789.41
2022-09-11T11:25:35.707Z,97768.97
2022-09-11T11:29:09.264Z,97775.91
2022-09-11T11:32:30.796Z,97786.75
2022-09-11T11:35:42.335Z,97791.88
2022-09-11T11:38:49.508Z,97785.34
2022-09-11T11:42:04.187Z,97765.88
2022-09-11T11:45:17.962Z,97755.66
2022-09-11T11:48:26.795Z,97755.84
2022-09-11T11:51:35.520Z,97759.53
2022-09-11T11:54:44.721Z,97760.59
2022-09-11T11:57:56.364Z,97780.00
2022-09-11T12:01:05.499Z,97752.63
2022-09-11T12:04:20.844Z,97739.31
2022-09-11T12:07:26.363Z,97766.72
2022-09-11T12:10:34.247Z,97766.13
2022-09-11T12:13:42.324Z,97765.91
2022-09-11T12:16:47.422Z,97762.84
2022-09-11T12:20:29.047Z,97764.88
2022-09-11T12:23:56.038Z,97739.53
2022-09-11T12:27:32.987Z,97746.84
2022-09-11T12:30:58.008Z,97737.91
2022-09-11T12:34:02.205Z,97729.47
2022-09-11T12:37:09.322Z,97706.19
2022-09-11T12:40:19.203Z,97683.00
2022-09-11T12:43:47.769Z,97703.09
2022-09-11T12:47:11.458Z,97719.53
2022-09-11T12:50:20.193Z,97725.03
2022-09-11T12:53:27.283Z,97731.59
2022-09-11T12:56:33.067Z,97743.22
2022-09-11T12:59:39.042Z,97752.22
2022-09-11T13:02:46.748Z,97768.31
2022-09-11T13:05:57.974Z,97754.03
2022-09-11T13:09:02.397Z,97751.19
2022-09-11T13:12:49.913Z,97756.72
2022-09-11T13:15:57.281Z,97736.28
2022-09-11T13:19:03.439Z,97723.59
2022-09-11T13:22:22.229Z,97735.47
2022-09-11T13:25:26.563Z,97756.72
2022-09-11T13:28:31.756Z,97753.44
2022-09-11T13:31:36.294Z,97737.09
2022-09-11T13:34:39.872Z,97732.59
2022-09-11T13:37:48.624Z,97706.41
2022-09-11T13:40:56.890Z,97696.63
2022-09-11T13:44:01.584Z,97689.50
2022-09-11T13:47:06.418Z,97695.41
2022-09-11T13:50:14.159Z,97700.31
2022-09-11T13:53:19.539Z,97683.97
2022-09-11T13:56:38.953Z,97670.44
2022-09-11T13:59:50.036Z,97653.63
2022-09-11T14:02:52.959Z,97633.56
2022-09-11T14:05:58.465Z,97623.53
2022-09-11T14:09:02.756Z,97634.00
2022-09-11T14:12:06.083Z,97614.03
2022-09-11T14:15:20.516Z,97609.16
2022-09-11T14:18:30.459Z,97614.88
2022-09-11T14:21:36.182Z,97616.06
2022-09-11T14:24:41.401Z,97606.56
2022-09-11T14:27:44.642Z,97586.56
2022-09-11T14:31:07.642Z,97568.13
2022-09-11T14:34:16.303Z,97570.19
2022-09-11T14:37:19.199Z,97572.66
2022-09-11T14:40:23.390Z,97571.41
2022-09-11T14:43:31.212Z,97574.91
2022-09-11T14:46:34.056Z,97570.88
2022-09-11T14:49:36.786Z,97576.03
2022-09-11T14:52:42.504Z,97581.34
2022-09-11T14:55:47.013Z,97583.41
2022-09-11T14:58:49.781Z,97576.72
2022-09-11T15:01:52.772Z,97583.63
2022-09-11T15:04:57.864Z,97589.56
2022-09-11T15:08:00.677Z,97585.06
2022-09-11T15:11:04.738Z,97587.09
2022-09-11T15:14:32.218Z,97597.28
2022-09-11T15:17:31.861Z,97597.03
2022-09-11T15:20:34.755Z,97592.78
2022-09-11T15:23:37.889Z,97596.66
2022-09-11T15:26:42.132Z,97598.50
2022-09-11T15:29:45.190Z,97597.72
2022-09-11T15:32:48.252Z,97598.72
2022-09-11T15:35:51.075Z,97599.31
2022-09-11T15:38:54.305Z,97605.22
2022-09-11T15:41:59.293Z,97611.38
2022-09-11T15:45:02.560Z,97609.09
2022-09-11T15:48:05.416Z,97605.41
2022-09-11T15:51:12.774Z,97596.84
2022-09-11T15:54:16.815Z,97606.69
2022-09-11T15:57:21.281Z,97596.06
2022-09-11T16:00:24.045Z,97592.41
2022-09-11T16:03:27.385Z,97588.72
2022-09-11T16:06:32.909Z,97592.38
2022-09-11T16:09:35.956Z,97598.09
2022-09-11T16:12:41.209Z,97598.72
2022-09-11T16:15:44.112Z,97612.41
2022-09-11T16:18:47.295Z,97623.91
2022-09-11T16:21:50.681Z,97632.09
2022-09-11T16:24:54.228Z,97641.88
2022-09-11T16:27:59.763Z,97649.88
2022-09-11T16:31:03.235Z,97654.41
2022-09-11T16:34:07.376Z,97655.41
2022-09-11T16:37:12.055Z,97652.56
2022-09-11T16:40:15.030Z,97651.34
2022-09-11T16:43:21.554Z,97655.81
2022-09-11T16:46:26.324Z,97655.41
2022-09-11T16:49:34.311Z,97654.00
2022-09-11T16:52:43.609Z,97660.31
2022-09-11T16:55:46.551Z,97665.63
2022-09-11T16:58:50.796Z,97668.91
2022-09-11T17:01:57.299Z,97670.94
2022-09-11T17:05:00.156Z,97675.84
2022-09-11T17:08:03.564Z,97680.75
2022-09-11T17:11:08.247Z,97697.84
2022-09-11T17:14:12.951Z,97719.69
2022-09-11T17:17:15.711Z,97725.78
2022-09-11T17:20:18.620Z,97728.06
2022-09-11T17:23:21.618Z,97730.50
2022-09-11T17:26:24.923Z,97739.91
2022-09-11T17:29:29.116Z,97729.31
2022-09-11T17:32:32.056Z,97727.09
2022-09-11T17:35:35.142Z,97732.81
2022-09-11T17:38:39.008Z,97725.47
2022-09-11T17:41:41.789Z,97740.78
2022-09-11T17:44:45.959Z,97749.84
2022-09-11T17:47:48.759Z,97784.31
2022-09-11T17:50:51.748Z,97793.28
2022-09-11T17:53:56.552Z,97798.88
2022-09-11T17:56:59.433Z,97798.66
2022-09-11T18:00:04.773Z,97796.63
2022-09-11T18:03:15.053Z,97781.09
2022-09-11T18:06:23.258Z,97778.25
2022-09-11T18:09:26.080Z,97768.06
2022-09-11T18:12:29.026Z,97763.13
2022-09-11T18:15:33.135Z,97747.00
2022-09-11T18:18:35.936Z,97741.09
2022-09-11T18:21:39.156Z,97735.34
2022-09-11T18:24:41.915Z,97725.53
2022-09-11T18:27:44.641Z,97713.47
2022-09-11T18:30:49.892Z,97717.72
2022-09-11T18:33:54.738Z,97719.91
2022-09-11T18:36:59.880Z,97733.38
2022-09-11T18:40:03.258Z,97742.91
2022-09-11T18:43:09.358Z,97743.56
2022-09-11T18:46:13.777Z,97747.84
2022-09-11T18:49:17.373Z,97744.00
2022-09-11T18:52:25.502Z,97752.94
2022-09-11T18:55:29.050Z,97754.16
2022-09-11T18:58:32.591Z,97761.47
2022-09-11T19:01:37.384Z,97755.13
2022-09-11T19:04:40.251Z,97764.97
2022-09-11T19:07:43.778Z,97781.19
2022-09-11T19:10:46.644Z,97807.19
2022-09-11T19:13:52.955Z,97830.28
2022-09-11T19:16:57.214Z,97859.88
2022-09-11T19:20:00.492Z,97890.75
2022-09-11T19:23:03.547Z,97914.59
2022-09-11T19:26:09.689Z,97916.22
2022-09-11T19:29:15.726Z,97929.03
2022-09-11T19:32:20.144Z,97928.22
2022-09-11T19:35:23.171Z,97919.38
2022-09-11T19:38:26.530Z,97912.34
2022-09-11T19:41:31.332Z,97896.25
2022-09-11T19:44:34.457Z,97891.09
2022-09-11T19:47:38.635Z,97863.66
2022-09-11T19:50:44.386Z,97875.38
2022-09-11T19:53:47.164Z,97873.53
2022-09-11T19:56:51.013Z,97882.63
2022-09-11T19:59:53.745Z,97887.28
2022-09-11T20:02:58.030Z,97896.66
2022-09-11T20:06:00.906Z,97908.56
2022-09-11T20:09:29.730Z,97921.78
2022-09-11T20:12:31.230Z,97917.34
2022-09-11T20:15:36.104Z,97918.06
2022-09-11T20:18:40.274Z,97965.53
2022-09-11T20:21:43.061Z,97975.69
2022-09-11T20:24:45.773Z,97984.00
2022-09-11T20:27:48.524Z,97996.50
2022-09-11T20:30:51.412Z,97997.78
2022-09-11T20:33:55.833Z,98014.56
2022-09-11T20:37:00.811Z,98010.09
2022-09-11T20:40:05.495Z,98018.63
2022-09-11T20:43:08.671Z,98038.75
2022-09-11T20:46:11.594Z,98070.69
2022-09-11T20:49:15.833Z,98098.34
2022-09-11T20:52:18.612Z,98115.31
2022-09-11T20:55:21.357Z,98141.84
2022-09-11T20:58:24.219Z,98159.06
2022-09-11T21:01:28.371Z,98167.34
2022-09-11T21:04:32.505Z,98183.84
2022-09-11T21:07:35.434Z,98191.75
2022-09-11T21:10:38.397Z,98209.56
2022-09-11T21:13:42.765Z,98211.78
2022-09-11T21:16:45.502Z,98225.94
2022-09-11T21:19:50.760Z,98228.78
2022-09-11T21:22:55.867Z,98250.53
2022-09-11T21:25:58.798Z,98267.69
2022-09-11T21:29:03.980Z,98266.69
2022-09-11T21:32:06.885Z,98283.78
2022-09-11T21:35:11.064Z,98276.25
2022-09-11T21:38:13.745Z,98284.78
2022-09-11T21:41:16.499Z,98303.19
2022-09-11T21:44:19.279Z,98306.69
2022-09-11T21:47:22.008Z,98306.50
2022-09-11T21:50:26.093Z,98307.63
2022-09-11T21:53:28.841Z,98312.53
2022-09-11T21:56:33.291Z,98326.44
2022-09-11T21:59:36.069Z,98335.00
2022-09-11T22:02:38.863Z,98349.88
2022-09-11T22:05:44.159Z,98351.22
2022-09-11T22:08:47.377Z,98368.03
2022-09-11T22:11:50.357Z,98387.03
2022-09-11T22:14:54.893Z,98391.44
2022-09-11T22:17:57.633Z,98399.38
2022-09-11T22:21:01.779Z,98394.09
2022-09-11T22:24:04.976Z,98391.09
2022-09-11T22:27:07.743Z,98378.69
2022-09-11T22:30:11.994Z,98379.06
2022-09-11T22:33:14.983Z,98365.72
2022-09-11T22:36:20.977Z,98350.38
2022-09-11T22:39:23.964Z,98341.47
2022-09-11T22:42:26.693Z,98324.88
2022-09-11T22:45:29.467Z,98319.91
2022-09-11T22:48:32.801Z,98301.69
2022-09-11T22:51:38.111Z,98290.50
2022-09-11T22:54:40.847Z,98300.00
2022-09-11T22:57:43.619Z,98290.13
2022-09-11T23:00:46.748Z,98293.09
2022-09-11T23:03:49.593Z,98284.72
2022-09-11T23:07:11.074Z,98275.00
2022-09-11T23:10:13.779Z,98284.00
2022-09-11T23:13:16.515Z,98280.91
2022-09-11T23:16:22.165Z,98279.03
2022-09-11T23:19:24.944Z,98297.50
2022-09-11T23:22:29.073Z,98309.88
2022-09-11T23:25:32.741Z,98322.28
2022-09-11T23:28:35.747Z,98328.72
2022-09-11T23:31:38.505Z,98339.94
2022-09-11T23:34:41.288Z,98356.63
2022-09-11T23:37:45.893Z,98372.47
2022-09-11T23:40:48.611Z,98380.69
2022-09-11T23:43:51.674Z,98387.63
2022-09-11T23:46:54.436Z,98390.06
2022-09-11T23:49:57.734Z,98397.19
2022-09-11T23:53:01.803Z,98396.84
2022-09-11T23:56:04.798Z,98386.97
2022-09-11T23:59:07.950Z,98382.69
